createdAt,value
2022-08-23T00:01:34.264Z,3.83
2022-08-23T00:04:01.178Z,3.90
2022-08-23T00:06:23.785Z,3.70
2022-08-23T00:08:48.413Z,3.80
2022-08-23T00:11:26.260Z,3.63
2022-08-23T00:13:48.512Z,3.97
2022-08-23T00:16:10.141Z,3.40
2022-08-23T00:18:32.137Z,3.63
2022-08-23T00:20:55.085Z,4.07
2022-08-23T00:23:16.376Z,4.13
2022-08-23T00:25:37.655Z,3.50
2022-08-23T00:27:59.286Z,4.00
2022-08-23T00:30:20.680Z,3.60
2022-08-23T00:32:42.075Z,3.70
2022-08-23T00:35:03.855Z,3.70
2022-08-23T00:37:27.072Z,4.00
2022-08-23T00:39:48.708Z,3.60
2022-08-23T00:42:28.001Z,3.67
2022-08-23T00:45:06.733Z,3.67
2022-08-23T00:47:45.038Z,4.03
2022-08-23T00:50:23.765Z,3.77
2022-08-23T00:52:52.385Z,4.00
2022-08-23T00:55:14.261Z,3.80
2022-08-23T00:57:37.297Z,3.80
2022-08-23T00:59:58.981Z,3.50
2022-08-23T01:02:20.848Z,3.80
2022-08-23T01:04:45.419Z,3.80
2022-08-23T01:07:13.213Z,3.90
2022-08-23T01:09:37.298Z,3.90
2022-08-23T01:12:05.027Z,3.60
2022-08-23T01:14:28.776Z,4.10
2022-08-23T01:16:53.942Z,4.30
2022-08-23T01:19:19.673Z,3.53
2022-08-23T01:21:44.814Z,4.20
2022-08-23T01:24:08.843Z,3.73
2022-08-23T01:26:39.463Z,4.33
2022-08-23T01:29:00.954Z,3.80
2022-08-23T01:31:23.279Z,3.70
2022-08-23T01:33:44.954Z,3.47
2022-08-23T01:36:09.757Z,3.80
2022-08-23T01:38:32.747Z,3.90
2022-08-23T01:40:56.023Z,4.00
2022-08-23T01:43:19.722Z,4.20
2022-08-23T01:45:42.343Z,3.80
2022-08-23T01:48:04.801Z,3.50
2022-08-23T01:50:27.317Z,3.70
2022-08-23T01:52:48.954Z,3.97
2022-08-23T01:55:10.658Z,3.60
2022-08-23T01:57:35.457Z,3.73
2022-08-23T01:59:56.805Z,3.90
2022-08-23T02:02:18.322Z,3.83
2022-08-23T02:04:39.534Z,4.17
2022-08-23T02:07:00.916Z,3.93
2022-08-23T02:09:21.329Z,4.43
2022-08-23T02:11:43.655Z,4.30
2022-08-23T02:14:08.564Z,4.00
2022-08-23T02:16:33.753Z,3.97
2022-08-23T02:18:56.056Z,4.33
2022-08-23T02:21:17.894Z,4.03
2022-08-23T02:23:39.085Z,4.33
2022-08-23T02:26:00.334Z,4.70
2022-08-23T02:28:22.502Z,4.30
2022-08-23T02:30:45.627Z,4.37
2022-08-23T02:33:08.526Z,4.27
2022-08-23T02:35:29.878Z,4.53
2022-08-23T02:37:52.725Z,4.10
2022-08-23T02:40:14.536Z,4.27
2022-08-23T02:42:36.321Z,3.80
2022-08-23T02:44:57.907Z,3.97
2022-08-23T02:47:20.353Z,4.10
2022-08-23T02:49:41.599Z,4.43
2022-08-23T02:52:02.933Z,4.10
2022-08-23T02:54:24.401Z,4.53
2022-08-23T02:56:46.003Z,4.10
2022-08-23T02:59:08.058Z,4.20
2022-08-23T03:01:32.377Z,4.20
2022-08-23T03:03:56.016Z,4.30
2022-08-23T03:06:24.419Z,4.67
2022-08-23T03:08:47.815Z,4.50
2022-08-23T03:11:13.089Z,4.73
2022-08-23T03:13:34.812Z,4.00
2022-08-23T03:15:56.500Z,4.50
2022-08-23T03:18:17.949Z,4.63
2022-08-23T03:20:41.703Z,4.33
2022-08-23T03:23:03.157Z,4.57
2022-08-23T03:25:24.745Z,4.50
2022-08-23T03:27:46.045Z,4.50
2022-08-23T03:30:09.443Z,4.43
2022-08-23T03:32:36.769Z,4.60
2022-08-23T03:34:58.720Z,4.17
2022-08-23T03:37:21.838Z,4.80
2022-08-23T03:39:43.479Z,4.90
2022-08-23T03:42:05.931Z,4.80
2022-08-23T03:44:27.915Z,4.70
2022-08-23T03:46:50.525Z,4.73
2022-08-23T03:49:12.338Z,4.90
2022-08-23T03:51:34.358Z,4.70
2022-08-23T03:53:57.572Z,4.70
2022-08-23T03:56:23.730Z,5.30
2022-08-23T03:58:45.273Z,5.63
2022-08-23T04:01:07.647Z,5.10
2022-08-23T04:03:29.065Z,5.40
2022-08-23T04:05:50.388Z,5.17
2022-08-23T04:08:12.132Z,5.17
2022-08-23T04:10:34.815Z,5.23
2022-08-23T04:12:56.317Z,5.07
2022-08-23T04:15:20.386Z,4.80
2022-08-23T04:17:42.749Z,4.83
2022-08-23T04:20:04.975Z,4.80
2022-08-23T04:22:26.773Z,4.93
2022-08-23T04:24:49.427Z,5.40
2022-08-23T04:27:13.053Z,4.93
2022-08-23T04:29:34.773Z,4.93
2022-08-23T04:31:56.107Z,5.60
2022-08-23T04:34:17.542Z,5.20
2022-08-23T04:36:45.996Z,5.77
2022-08-23T04:39:17.044Z,5.80
2022-08-23T04:41:55.808Z,5.53
2022-08-23T04:44:19.046Z,5.67
2022-08-23T04:46:40.826Z,5.20
2022-08-23T04:49:02.088Z,6.03
2022-08-23T04:51:23.748Z,5.77
2022-08-23T04:53:45.341Z,5.47
2022-08-23T04:56:08.449Z,6.07
2022-08-23T04:58:30.154Z,5.67
2022-08-23T05:00:54.145Z,5.83
2022-08-23T05:03:15.680Z,6.20
2022-08-23T05:05:38.400Z,6.10
2022-08-23T05:08:00.031Z,6.20
2022-08-23T05:10:21.708Z,5.63
2022-08-23T05:12:43.483Z,5.47
2022-08-23T05:15:05.400Z,6.30
2022-08-23T05:17:28.153Z,6.67
2022-08-23T05:19:49.693Z,6.00
2022-08-23T05:22:12.139Z,5.73
2022-08-23T05:24:34.114Z,5.47
2022-08-23T05:26:55.516Z,6.77
2022-08-23T05:29:16.997Z,5.60
2022-08-23T05:31:38.886Z,6.43
2022-08-23T05:34:01.946Z,6.63
2022-08-23T05:36:23.470Z,6.33
2022-08-23T05:38:45.677Z,6.03
2022-08-23T05:41:07.324Z,6.23
2022-08-23T05:43:29.458Z,6.47
2022-08-23T05:46:00.786Z,6.40
2022-08-23T05:48:23.336Z,6.10
2022-08-23T05:50:46.147Z,6.63
2022-08-23T05:53:10.620Z,6.20
2022-08-23T05:55:34.646Z,6.20
2022-08-23T05:57:56.970Z,6.33
2022-08-23T06:00:18.692Z,6.47
2022-08-23T06:02:40.019Z,6.50
2022-08-23T06:05:01.576Z,6.23
2022-08-23T06:07:24.182Z,6.23
2022-08-23T06:09:45.808Z,6.37
2022-08-23T06:12:07.336Z,5.60
2022-08-23T06:14:29.002Z,5.97
2022-08-23T06:16:55.754Z,6.10
2022-08-23T06:19:17.845Z,6.07
2022-08-23T06:21:40.107Z,6.10
2022-08-23T06:24:03.277Z,6.00
2022-08-23T06:26:27.123Z,6.37
2022-08-23T06:28:51.263Z,5.13
2022-08-23T06:31:12.980Z,5.23
2022-08-23T06:33:36.250Z,5.23
2022-08-23T06:36:04.588Z,5.20
2022-08-23T06:38:26.204Z,5.10
2022-08-23T06:40:49.998Z,5.00
2022-08-23T06:43:11.699Z,5.07
2022-08-23T06:45:35.103Z,4.63
2022-08-23T06:47:57.346Z,4.97
2022-08-23T06:50:19.435Z,4.50
2022-08-23T06:52:40.646Z,4.70
2022-08-23T06:55:03.689Z,4.60
2022-08-23T06:57:26.509Z,5.00
2022-08-23T06:59:49.749Z,4.70
2022-08-23T07:02:14.704Z,4.53
2022-08-23T07:04:39.248Z,5.00
2022-08-23T07:07:01.869Z,5.10
2022-08-23T07:09:23.624Z,5.27
2022-08-23T07:11:45.197Z,5.20
2022-08-23T07:14:10.326Z,4.63
2022-08-23T07:16:33.991Z,4.70
2022-08-23T07:18:55.658Z,4.90
2022-08-23T07:21:17.070Z,4.90
2022-08-23T07:23:38.776Z,4.50
2022-08-23T07:26:01.114Z,4.50
2022-08-23T07:28:22.797Z,4.50
2022-08-23T07:30:45.694Z,4.70
2022-08-23T07:33:07.714Z,4.53
2022-08-23T07:35:29.521Z,4.27
2022-08-23T07:37:51.129Z,4.43
2022-08-23T07:40:20.429Z,4.80
2022-08-23T07:42:42.496Z,4.40
2022-08-23T07:45:04.188Z,4.63
2022-08-23T07:47:28.728Z,4.80
2022-08-23T07:49:51.067Z,4.70
2022-08-23T07:52:12.725Z,4.40
2022-08-23T07:54:34.032Z,4.27
2022-08-23T07:56:55.418Z,4.80
2022-08-23T07:59:16.716Z,4.27
2022-08-23T08:01:38.286Z,4.60
2022-08-23T08:04:02.724Z,4.40
2022-08-23T08:06:26.122Z,3.97
2022-08-23T08:08:48.285Z,3.90
2022-08-23T08:11:11.546Z,4.37
2022-08-23T08:13:33.413Z,3.60
2022-08-23T08:15:55.138Z,4.20
2022-08-23T08:18:16.475Z,3.90
2022-08-23T08:20:39.187Z,3.97
2022-08-23T08:23:00.718Z,3.90
2022-08-23T08:25:22.632Z,4.03
2022-08-23T08:27:44.803Z,3.73
2022-08-23T08:30:07.897Z,3.60
2022-08-23T08:32:29.193Z,3.50
2022-08-23T08:34:50.499Z,3.60
2022-08-23T08:37:13.934Z,3.33
2022-08-23T08:39:36.109Z,3.60
2022-08-23T08:42:07.147Z,3.80
2022-08-23T08:44:35.840Z,3.60
2022-08-23T08:46:58.342Z,3.77
2022-08-23T08:49:24.465Z,3.80
2022-08-23T08:51:50.326Z,4.00
2022-08-23T08:54:14.987Z,3.30
2022-08-23T08:56:38.810Z,3.50
2022-08-23T08:59:02.031Z,3.57
2022-08-23T09:01:26.401Z,3.53
2022-08-23T09:03:49.000Z,3.53
2022-08-23T09:06:21.103Z,3.33
2022-08-23T09:08:55.987Z,3.20
2022-08-23T09:11:27.624Z,3.60
2022-08-23T09:14:02.681Z,3.60
2022-08-23T09:16:33.673Z,3.53
2022-08-23T09:18:55.271Z,3.67
2022-08-23T09:21:17.063Z,3.47
2022-08-23T09:23:42.578Z,3.30
2022-08-23T09:26:06.817Z,3.10
2022-08-23T09:28:32.137Z,3.00
2022-08-23T09:30:56.056Z,3.20
2022-08-23T09:33:19.974Z,3.00
2022-08-23T09:35:41.453Z,2.87
2022-08-23T09:38:05.715Z,3.00
2022-08-23T09:40:33.827Z,2.90
2022-08-23T09:43:07.194Z,3.00
2022-08-23T09:45:35.457Z,2.70
2022-08-23T09:47:57.214Z,3.10
2022-08-23T09:50:26.749Z,2.90
2022-08-23T09:52:49.770Z,2.93
2022-08-23T09:55:13.357Z,2.60
2022-08-23T09:57:47.614Z,2.77
2022-08-23T10:01:06.583Z,2.60
2022-08-23T10:03:46.987Z,2.77
2022-08-23T10:06:09.593Z,2.63
2022-08-23T10:08:33.946Z,2.60
2022-08-23T10:11:19.354Z,2.43
2022-08-23T10:14:03.857Z,2.40
2022-08-23T10:16:58.285Z,2.37
2022-08-23T10:19:27.156Z,2.40
2022-08-23T10:21:54.318Z,2.53
2022-08-23T10:24:40.391Z,2.60
2022-08-23T10:27:30.257Z,2.13
2022-08-23T10:29:53.145Z,2.40
2022-08-23T10:32:23.093Z,2.50
2022-08-23T10:34:59.208Z,2.40
2022-08-23T10:37:48.546Z,2.43
2022-08-23T10:40:17.451Z,2.50
2022-08-23T10:42:44.257Z,2.70
2022-08-23T10:45:15.307Z,2.90
2022-08-23T10:47:39.462Z,3.00
2022-08-23T10:50:20.098Z,2.60
2022-08-23T10:53:07.017Z,2.30
2022-08-23T10:56:03.836Z,2.40
2022-08-23T10:58:48.533Z,2.50
2022-08-23T11:01:11.203Z,2.60
2022-08-23T11:03:34.261Z,2.33
2022-08-23T11:06:49.674Z,2.40
2022-08-23T11:09:52.344Z,2.57
2022-08-23T11:12:52.364Z,2.37
2022-08-23T11:15:44.566Z,2.40
2022-08-23T11:18:43.402Z,2.43
2022-08-23T11:21:42.817Z,2.50
2022-08-23T11:24:53.265Z,2.40
2022-08-23T11:27:51.200Z,2.30
2022-08-23T11:31:30.943Z,2.23
2022-08-23T11:34:53.177Z,2.37
2022-08-23T11:37:55.552Z,2.40
2022-08-23T11:41:02.172Z,2.40
2022-08-23T11:43:47.764Z,2.40
2022-08-23T11:46:56.343Z,2.63
2022-08-23T11:50:03.834Z,2.30
2022-08-23T11:53:18.297Z,2.53
2022-08-23T11:56:15.976Z,2.40
2022-08-23T11:59:13.896Z,2.70
2022-08-23T12:01:37.366Z,2.73
2022-08-23T12:04:01.313Z,2.47
2022-08-23T12:06:50.834Z,2.53
2022-08-23T12:10:08.219Z,2.63
2022-08-23T12:13:28.387Z,2.53
2022-08-23T12:16:36.279Z,2.37
2022-08-23T12:19:41.897Z,2.50
2022-08-23T12:22:55.117Z,2.40
2022-08-23T12:25:41.107Z,2.53
2022-08-23T12:28:31.492Z,2.37
2022-08-23T12:31:26.905Z,2.40
2022-08-23T12:34:18.823Z,2.50
2022-08-23T12:37:09.596Z,2.50
2022-08-23T12:39:48.439Z,2.40
2022-08-23T12:42:15.669Z,2.23
2022-08-23T12:45:00.722Z,2.70
2022-08-23T12:47:39.723Z,2.70
2022-08-23T12:50:32.687Z,5.20
2022-08-23T12:53:27.973Z,2.50
2022-08-23T12:56:12.866Z,2.40
2022-08-23T12:58:56.879Z,2.40
2022-08-23T13:01:44.011Z,2.50
2022-08-23T13:05:09.009Z,2.40
2022-08-23T13:08:35.061Z,2.53
2022-08-23T13:11:57.861Z,2.77
2022-08-23T13:15:49.068Z,2.40
2022-08-23T13:19:14.229Z,2.43
2022-08-23T13:22:22.062Z,2.50
2022-08-23T13:25:27.464Z,2.70
2022-08-23T13:29:01.165Z,2.40
2022-08-23T13:32:38.314Z,2.40
2022-08-23T13:36:17.620Z,2.50
2022-08-23T13:39:29.414Z,2.30
2022-08-23T13:42:26.961Z,2.37
2022-08-23T13:45:45.294Z,2.70
2022-08-23T13:48:39.294Z,2.70
2022-08-23T13:52:37.997Z,2.20
2022-08-23T13:55:15.163Z,2.40
2022-08-23T13:58:00.355Z,2.23
2022-08-23T14:00:58.629Z,2.47
2022-08-23T14:03:46.947Z,2.47
2022-08-23T14:06:39.868Z,2.17
2022-08-23T14:09:25.533Z,2.30
2022-08-23T14:12:19.316Z,2.20
2022-08-23T14:14:42.267Z,2.23
2022-08-23T14:17:24.824Z,2.13
2022-08-23T14:23:12.304Z,2.10
2022-08-23T14:25:57.931Z,2.40
2022-08-23T14:28:44.282Z,2.30
2022-08-23T14:31:26.786Z,2.60
2022-08-23T14:34:09.000Z,2.40
2022-08-23T14:39:54.233Z,2.20
2022-08-23T14:42:39.388Z,2.30
2022-08-23T14:45:21.181Z,2.33
2022-08-23T14:48:03.276Z,2.10
2022-08-23T14:50:45.300Z,2.05
2022-08-23T14:53:28.457Z,2.33
2022-08-23T14:56:20.996Z,2.55
2022-08-23T14:59:05.012Z,2.20
2022-08-23T15:01:47.246Z,2.22
2022-08-23T15:04:34.563Z,2.50
2022-08-23T15:07:18.575Z,2.22
2022-08-23T15:10:01.425Z,2.42
2022-08-23T15:13:14.276Z,2.45
2022-08-23T15:15:48.740Z,2.30
2022-08-23T15:18:31.836Z,2.40
2022-08-23T15:21:14.872Z,2.40
2022-08-23T15:23:56.997Z,2.50
2022-08-23T15:26:40.956Z,2.22
2022-08-23T15:29:23.079Z,2.38
2022-08-23T15:32:06.332Z,2.47
2022-08-23T15:34:51.513Z,2.25
2022-08-23T15:37:34.354Z,2.30
2022-08-23T15:40:17.012Z,2.42
2022-08-23T15:42:59.468Z,2.50
2022-08-23T15:45:42.063Z,2.58
2022-08-23T15:48:29.582Z,2.60
2022-08-23T15:51:11.793Z,2.30
2022-08-23T15:53:53.904Z,2.35
2022-08-23T15:56:41.745Z,2.73
2022-08-23T15:59:23.910Z,2.60
2022-08-23T16:02:06.061Z,2.33
2022-08-23T16:04:49.141Z,2.50
2022-08-23T16:07:34.426Z,2.37
2022-08-23T16:10:16.487Z,2.33
2022-08-23T16:12:58.619Z,2.47
2022-08-23T16:15:40.943Z,2.60
2022-08-23T16:18:22.870Z,2.27
2022-08-23T16:21:06.896Z,2.40
2022-08-23T16:23:48.979Z,2.40
2022-08-23T16:26:35.223Z,3.00
2022-08-23T16:29:19.009Z,2.50
2022-08-23T16:32:01.424Z,2.60
2022-08-23T16:34:43.565Z,2.57
2022-08-23T16:37:28.237Z,2.80
2022-08-23T16:40:10.637Z,2.47
2022-08-23T16:42:53.509Z,2.57
2022-08-23T16:45:36.251Z,2.40
2022-08-23T16:48:18.713Z,2.40
2022-08-23T16:51:00.597Z,3.20
2022-08-23T16:53:43.999Z,2.37
2022-08-23T16:56:34.462Z,2.70
2022-08-23T16:59:16.764Z,2.70
2022-08-23T17:02:11.032Z,2.90
2022-08-23T17:04:53.849Z,2.70
2022-08-23T17:07:35.913Z,2.67
2022-08-23T17:10:19.949Z,2.57
2022-08-23T17:13:04.047Z,2.90
2022-08-23T17:15:47.905Z,2.73
2022-08-23T17:18:31.415Z,2.73
2022-08-23T17:21:13.553Z,2.80
2022-08-23T17:23:55.578Z,2.83
2022-08-23T17:26:39.552Z,2.67
2022-08-23T17:29:22.029Z,2.70
2022-08-23T17:32:04.273Z,2.77
2022-08-23T17:34:46.837Z,2.57
2022-08-23T17:37:37.043Z,2.70
2022-08-23T17:40:21.051Z,2.90
2022-08-23T17:43:05.509Z,2.60
2022-08-23T17:45:48.565Z,2.77
2022-08-23T17:48:30.806Z,2.33
2022-08-23T17:51:12.859Z,2.83
2022-08-23T17:53:54.857Z,2.70
2022-08-23T17:56:38.073Z,2.67
2022-08-23T17:59:23.621Z,2.47
2022-08-23T18:02:06.260Z,2.80
2022-08-23T18:04:48.279Z,2.97
2022-08-23T18:07:30.580Z,2.80
2022-08-23T18:10:13.703Z,2.80
2022-08-23T18:12:57.205Z,2.83
2022-08-23T18:15:40.985Z,2.90
2022-08-23T18:18:23.145Z,2.80
2022-08-23T18:21:05.940Z,2.93
2022-08-23T18:23:47.909Z,3.13
2022-08-23T18:26:48.063Z,3.10
2022-08-23T18:29:32.642Z,3.20
2022-08-23T18:32:16.246Z,3.30
2022-08-23T18:34:43.878Z,3.50
2022-08-23T18:37:26.379Z,2.97
2022-08-23T18:40:10.152Z,3.27
2022-08-23T18:42:52.692Z,3.30
2022-08-23T18:45:34.666Z,3.30
2022-08-23T18:48:18.353Z,3.30
2022-08-23T18:51:00.947Z,3.23
2022-08-23T18:53:44.173Z,3.20
2022-08-23T18:56:26.817Z,3.10
2022-08-23T18:58:48.927Z,3.23
2022-08-23T19:01:21.954Z,3.60
2022-08-23T19:03:47.448Z,3.60
2022-08-23T19:06:09.137Z,3.70
2022-08-23T19:08:44.879Z,3.50
2022-08-23T19:11:06.538Z,3.60
2022-08-23T19:13:28.222Z,3.40
2022-08-23T19:15:51.519Z,3.80
2022-08-23T19:18:14.557Z,3.77
2022-08-23T19:20:38.853Z,3.70
2022-08-23T19:23:00.369Z,3.70
2022-08-23T19:25:22.519Z,3.70
2022-08-23T19:27:44.349Z,4.13
2022-08-23T19:30:06.725Z,3.47
2022-08-23T19:32:28.605Z,3.67
2022-08-23T19:34:49.873Z,3.70
2022-08-23T19:37:20.491Z,4.00
2022-08-23T19:39:45.030Z,3.80
2022-08-23T19:42:11.446Z,4.00
2022-08-23T19:44:34.903Z,4.27
2022-08-23T19:46:56.631Z,4.40
2022-08-23T19:49:18.458Z,4.40
2022-08-23T19:51:40.151Z,4.13
2022-08-23T19:54:10.923Z,4.10
2022-08-23T19:56:36.053Z,4.30
2022-08-23T19:58:57.951Z,4.37
2022-08-23T20:01:19.559Z,4.13
2022-08-23T20:03:40.947Z,4.50
2022-08-23T20:06:02.115Z,4.53
2022-08-23T20:08:24.774Z,4.23
2022-08-23T20:10:47.476Z,3.87
2022-08-23T20:13:08.793Z,4.10
2022-08-23T20:15:30.322Z,4.20
2022-08-23T20:17:52.325Z,3.90
2022-08-23T20:20:14.797Z,3.87
2022-08-23T20:22:54.007Z,4.30
2022-08-23T20:25:16.111Z,4.30
2022-08-23T20:27:39.338Z,4.87
2022-08-23T20:30:01.489Z,4.47
2022-08-23T20:32:23.272Z,4.40
2022-08-23T20:34:44.581Z,4.40
2022-08-23T20:37:06.655Z,4.70
2022-08-23T20:39:27.967Z,4.53
2022-08-23T20:41:49.792Z,4.80
2022-08-23T20:44:15.509Z,4.80
2022-08-23T20:46:37.368Z,4.60
2022-08-23T20:49:00.888Z,4.90
2022-08-23T20:51:22.604Z,4.00
2022-08-23T20:53:44.382Z,4.33
2022-08-23T20:56:06.477Z,4.10
2022-08-23T20:58:28.826Z,4.00
2022-08-23T21:00:52.069Z,4.60
2022-08-23T21:03:13.604Z,4.27
2022-08-23T21:05:35.145Z,4.17
2022-08-23T21:07:56.868Z,4.83
2022-08-23T21:10:19.077Z,4.63
2022-08-23T21:12:40.989Z,4.93
2022-08-23T21:15:02.377Z,4.60
2022-08-23T21:17:25.010Z,4.77
2022-08-23T21:19:46.189Z,4.83
2022-08-23T21:22:07.456Z,4.33
2022-08-23T21:24:29.050Z,4.70
2022-08-23T21:26:51.448Z,4.53
2022-08-23T21:29:13.086Z,4.60
2022-08-23T21:31:34.972Z,4.80
2022-08-23T21:33:59.788Z,5.07
2022-08-23T21:36:23.331Z,4.67
2022-08-23T21:38:45.494Z,4.50
2022-08-23T21:41:11.227Z,4.50
2022-08-23T21:43:33.838Z,4.60
2022-08-23T21:45:55.823Z,4.77
2022-08-23T21:48:17.096Z,4.83
2022-08-23T21:50:39.754Z,4.67
2022-08-23T21:53:01.514Z,4.57
2022-08-23T21:55:23.309Z,4.90
2022-08-23T21:57:57.949Z,4.73
2022-08-23T22:00:19.543Z,4.47
2022-08-23T22:02:41.173Z,5.10
2022-08-23T22:05:02.954Z,4.73
2022-08-23T22:07:26.175Z,5.10
2022-08-23T22:09:48.558Z,4.50
2022-08-23T22:12:10.272Z,4.83
2022-08-23T22:14:32.048Z,5.20
2022-08-23T22:16:55.375Z,4.60
2022-08-23T22:19:17.717Z,4.53
2022-08-23T22:21:39.304Z,5.17
2022-08-23T22:24:01.980Z,4.93
2022-08-23T22:26:23.456Z,5.00
2022-08-23T22:28:45.079Z,5.03
2022-08-23T22:31:08.494Z,4.73
2022-08-23T22:33:30.812Z,5.07
2022-08-23T22:35:52.383Z,5.00
2022-08-23T22:38:14.609Z,4.97
2022-08-23T22:40:37.895Z,4.80
2022-08-23T22:42:59.314Z,4.80
2022-08-23T22:45:22.012Z,5.07
2022-08-23T22:47:43.234Z,5.03
2022-08-23T22:50:04.958Z,5.00
2022-08-23T22:52:26.359Z,5.40
2022-08-23T22:54:47.702Z,5.20
2022-08-23T22:57:10.414Z,5.30
2022-08-23T22:59:32.979Z,5.27
2022-08-23T23:01:57.563Z,4.90
2022-08-23T23:04:22.171Z,4.83
2022-08-23T23:06:43.921Z,5.17
2022-08-23T23:09:06.434Z,5.00
2022-08-23T23:11:29.407Z,5.40
2022-08-23T23:13:52.369Z,5.33
2022-08-23T23:16:15.280Z,5.53
2022-08-23T23:18:37.561Z,5.57
2022-08-23T23:21:00.222Z,5.87
2022-08-23T23:23:23.452Z,5.30
2022-08-23T23:25:46.097Z,5.90
2022-08-23T23:28:07.615Z,5.30
2022-08-23T23:30:30.794Z,5.37
2022-08-23T23:32:52.014Z,5.87
2022-08-23T23:35:13.962Z,5.90
2022-08-23T23:37:35.428Z,5.83
2022-08-23T23:39:56.791Z,6.17
2022-08-23T23:42:18.689Z,6.10
2022-08-23T23:44:40.096Z,5.47
2022-08-23T23:47:03.166Z,5.70
2022-08-23T23:49:32.572Z,6.30
2022-08-23T23:51:55.043Z,6.50
2022-08-23T23:54:16.376Z,5.87
2022-08-23T23:56:37.902Z,5.67
2022-08-23T23:58:59.719Z,5.67
